Time;durP1;ratioP1;P1;durP2;ratioP2;P2;SDS_P1;SDS_P2;PMS_P1;PMS_P2;Temp;Humidity;BMP_temperature;BMP_pressure;BME280_temperature;BME280_humidity;BME280_pressure;Samples;Min_cycle;Max_cycle;Signal;HPM_P1;HPM_P2
2023/05/16 00:01:13;;;;;;;7.97;5.43;;;;;;;15.12;60.51;100634.63;4966602;28;20040;-35
2023/05/16 00:03:38;;;;;;;7.38;5.65;;;;;;;15.14;60.33;100635.34;4976558;28;20087;-35
2023/05/16 00:06:04;;;;;;;9.48;5.03;;;;;;;15.14;60.15;100638.00;4973810;28;20045;-35
2023/05/16 00:08:30;;;;;;;8.07;5.60;;;;;;;15.07;60.60;100634.97;4977704;28;20708;-35
2023/05/16 00:10:57;;;;;;;13.27;6.07;;;;;;;15.02;60.77;100636.31;4963482;28;20161;-35
2023/05/16 00:13:24;;;;;;;7.75;5.35;;;;;;;15.03;60.77;100635.34;4964922;28;20068;-36
2023/05/16 00:15:56;;;;;;;12.95;6.43;;;;;;;15.00;60.80;100635.59;4954073;28;20900;-35
2023/05/16 00:18:24;;;;;;;8.48;5.57;;;;;;;14.94;60.89;100636.91;4981486;28;20025;-35
2023/05/16 00:20:51;;;;;;;10.27;6.00;;;;;;;14.92;60.70;100634.34;4983880;28;20092;-35
2023/05/16 00:23:16;;;;;;;8.80;5.70;;;;;;;14.88;61.10;100627.63;4977806;28;20117;-35
2023/05/16 00:25:42;;;;;;;9.05;5.57;;;;;;;14.91;61.11;100621.25;4979276;28;20050;-35
2023/05/16 00:28:08;;;;;;;8.88;5.55;;;;;;;14.90;61.02;100630.16;4978603;28;20990;-35
2023/05/16 00:30:34;;;;;;;8.27;6.10;;;;;;;15.00;60.68;100624.97;4972260;28;20029;-36
2023/05/16 00:32:59;;;;;;;8.90;6.65;;;;;;;15.08;60.55;100634.03;4983408;28;20062;-35
2023/05/16 00:35:25;;;;;;;7.85;5.75;;;;;;;15.02;60.87;100628.34;4971239;28;20133;-35
2023/05/16 00:37:51;;;;;;;9.50;5.82;;;;;;;15.00;60.80;100625.81;4961158;28;20049;-35
2023/05/16 00:40:17;;;;;;;7.28;5.70;;;;;;;14.99;60.91;100634.72;4964688;28;20038;-35
2023/05/16 00:42:42;;;;;;;11.73;6.50;;;;;;;15.03;60.74;100630.06;4962105;28;20219;-35
2023/05/16 00:45:09;;;;;;;9.65;6.03;;;;;;;15.05;60.90;100630.78;4984111;28;20033;-35
2023/05/16 00:47:35;;;;;;;9.38;5.97;;;;;;;15.11;60.52;100626.78;4969523;28;20030;-35
2023/05/16 00:50:03;;;;;;;11.75;6.38;;;;;;;15.09;60.77;100629.56;4981639;28;25920;-35
2023/05/16 00:52:32;;;;;;;9.73;6.38;;;;;;;15.06;60.65;100637.72;4948710;28;20053;-35
2023/05/16 00:54:58;;;;;;;8.77;6.32;;;;;;;15.00;60.84;100632.94;4982812;28;20509;-35
2023/05/16 00:57:24;;;;;;;10.25;6.10;;;;;;;15.03;60.90;100635.34;4984460;28;20078;-35
2023/05/16 00:59:50;;;;;;;7.70;6.03;;;;;;;15.07;60.71;100632.34;4976957;28;22770;-35
2023/05/16 01:02:15;;;;;;;8.75;5.72;;;;;;;15.08;60.22;100634.03;4976061;28;20033;-36
2023/05/16 01:04:42;;;;;;;8.73;5.90;;;;;;;15.05;60.47;100633.44;4982223;28;20045;-36
2023/05/16 01:07:08;;;;;;;8.25;6.32;;;;;;;15.04;60.49;100634.38;4981357;28;20025;-35
2023/05/16 01:09:34;;;;;;;9.35;5.95;;;;;;;15.11;60.18;100640.88;4969750;28;20041;-36
2023/05/16 01:12:41;;;;;;;8.90;6.78;;;;;;;15.19;60.23;100638.47;4977472;28;20638;-35
2023/05/16 01:15:15;;;;;;;9.10;6.75;;;;;;;15.18;59.92;100644.75;4970810;28;20041;-36
2023/05/16 01:18:17;;;;;;;13.07;6.45;;;;;;;15.14;60.23;100648.59;4980105;28;20041;-36
2023/05/16 01:20:59;;;;;;;11.55;6.28;;;;;;;15.10;60.18;100647.13;4975361;28;20085;-36
2023/05/16 01:23:30;;;;;;;9.52;6.75;;;;;;;15.10;60.31;100652.44;4981228;28;20033;-35
2023/05/16 01:26:31;;;;;;;8.82;6.82;;;;;;;15.08;60.32;100649.06;4978986;28;20026;-36
2023/05/16 01:29:00;;;;;;;8.57;6.72;;;;;;;14.97;60.55;100657.00;4954508;28;20045;-37
2023/05/16 01:31:27;;;;;;;11.07;7.53;;;;;;;14.92;60.51;100655.56;4964955;28;20037;-36
2023/05/16 01:33:53;;;;;;;8.80;6.88;;;;;;;14.86;60.78;100649.88;4964084;28;20117;-36
2023/05/16 01:36:42;;;;;;;9.88;6.57;;;;;;;14.96;60.64;100647.38;4979225;28;20034;-36
2023/05/16 01:39:16;;;;;;;11.32;6.18;;;;;;;15.00;60.58;100647.00;4979548;28;20057;-36
2023/05/16 01:42:03;;;;;;;9.57;6.85;;;;;;;15.03;60.21;100651.25;4982111;28;20106;-35
2023/05/16 01:44:53;;;;;;;9.95;6.47;;;;;;;15.06;60.08;100651.84;4980227;28;20029;-36
2023/05/16 01:47:22;;;;;;;11.52;7.63;;;;;;;15.03;59.94;100665.31;4985718;28;20029;-36
2023/05/16 01:50:04;;;;;;;11.02;7.20;;;;;;;15.01;60.00;100663.75;4971443;28;20038;-35
2023/05/16 01:52:52;;;;;;;13.73;7.68;;;;;;;14.98;60.32;100661.34;4986917;28;20040;-36
2023/05/16 01:55:41;;;;;;;10.20;7.53;;;;;;;14.93;60.36;100667.84;4984316;28;20018;-35
2023/05/16 01:58:07;;;;;;;12.52;7.47;;;;;;;14.87;60.32;100667.47;4986244;28;20502;-35
2023/05/16 02:00:33;;;;;;;10.60;7.35;;;;;;;14.87;60.22;100663.03;4969684;28;20042;-36
2023/05/16 02:03:01;;;;;;;12.27;7.82;;;;;;;14.87;60.38;100664.81;4968195;28;20147;-36
2023/05/16 02:05:29;;;;;;;16.35;8.07;;;;;;;14.85;60.18;100667.59;4985011;28;20458;-35
2023/05/16 02:07:55;;;;;;;11.15;8.27;;;;;;;14.80;60.41;100667.09;4979676;28;20038;-36
2023/05/16 02:10:21;;;;;;;15.05;8.60;;;;;;;14.77;60.24;100670.84;4975999;28;20026;-36
2023/05/16 02:12:46;;;;;;;10.93;8.50;;;;;;;14.70;60.50;100663.47;4972849;28;20033;-35
2023/05/16 02:15:13;;;;;;;12.50;8.40;;;;;;;14.62;60.88;100672.81;4989504;28;20042;-36
2023/05/16 02:17:39;;;;;;;13.73;8.93;;;;;;;14.55;60.95;100671.59;4985549;28;20034;-35
2023/05/16 02:20:06;;;;;;;13.02;8.82;;;;;;;14.57;61.20;100669.69;4973155;28;20034;-36
2023/05/16 02:22:35;;;;;;;15.80;8.23;;;;;;;14.65;60.62;100677.03;4986574;28;20033;-36
2023/05/16 02:25:02;;;;;;;17.98;9.10;;;;;;;14.61;60.74;100681.72;4984358;28;20034;-36
2023/05/16 02:27:29;;;;;;;11.25;8.35;;;;;;;14.58;61.02;100684.63;4988364;28;20069;-36
2023/05/16 02:29:55;;;;;;;13.27;8.43;;;;;;;14.62;60.76;100688.69;4954068;28;20040;-36
2023/05/16 02:32:21;;;;;;;13.93;8.88;;;;;;;14.71;60.72;100689.00;4972272;28;20034;-37
2023/05/16 02:34:46;;;;;;;13.73;8.50;;;;;;;14.75;60.48;100691.31;4955835;28;20057;-36
2023/05/16 02:37:12;;;;;;;15.95;8.95;;;;;;;14.73;60.62;100689.75;4962419;28;20034;-36
2023/05/16 02:39:38;;;;;;;11.43;8.68;;;;;;;14.62;60.82;100701.09;4960230;28;20038;-36
2023/05/16 02:42:05;;;;;;;11.75;8.95;;;;;;;14.58;60.85;100697.84;4981408;28;20494;-36
2023/05/16 02:44:31;;;;;;;11.35;9.23;;;;;;;14.46;61.07;100704.91;4975926;28;21690;-37
2023/05/16 02:46:56;;;;;;;15.50;9.02;;;;;;;14.45;61.28;100699.72;4961229;28;20480;-38
2023/05/16 02:49:25;;;;;;;14.38;9.93;;;;;;;14.42;61.23;100705.25;4980520;28;20149;-36
2023/05/16 02:51:50;;;;;;;7.88;5.90;;;;;;;14.36;61.58;100713.66;4968063;28;20072;-36
2023/05/16 02:54:16;;;;;;;12.82;9.25;;;;;;;14.37;61.45;100715.34;4967747;28;20057;-36
2023/05/16 02:56:42;;;;;;;15.07;10.10;;;;;;;14.32;61.59;100715.69;4973380;28;20100;-37
2023/05/16 02:59:10;;;;;;;14.45;9.80;;;;;;;14.35;61.56;100722.53;4968103;28;20037;-36
2023/05/16 03:01:36;;;;;;;16.27;9.70;;;;;;;14.28;61.34;100728.31;4992588;28;20130;-36
2023/05/16 03:04:02;;;;;;;15.88;10.00;;;;;;;14.33;61.60;100731.44;4986427;28;20030;-36
2023/05/16 03:06:29;;;;;;;14.35;9.52;;;;;;;14.42;61.11;100734.38;4975151;28;20038;-36
2023/05/16 03:08:54;;;;;;;16.35;9.90;;;;;;;14.43;61.24;100738.72;4985433;28;20033;-36
2023/05/16 03:11:21;;;;;;;12.73;9.50;;;;;;;14.45;61.05;100742.94;4987308;28;20152;-36
2023/05/16 03:13:49;;;;;;;14.65;9.88;;;;;;;14.44;61.01;100746.53;4950688;28;20112;-36
2023/05/16 03:16:15;;;;;;;18.67;10.35;;;;;;;14.32;61.43;100745.63;4980399;28;20068;-36
2023/05/16 03:18:41;;;;;;;14.13;10.57;;;;;;;14.23;61.71;100754.25;4983094;28;20107;-36
2023/05/16 03:21:07;;;;;;;14.32;10.95;;;;;;;14.24;61.72;100755.94;4985367;28;20026;-36
2023/05/16 03:23:32;;;;;;;13.73;9.65;;;;;;;14.31;61.46;100759.81;4985595;28;20112;-33
2023/05/16 03:25:58;;;;;;;14.77;10.82;;;;;;;14.30;61.44;100760.78;4980313;28;20049;-35
2023/05/16 03:28:24;;;;;;;14.25;10.35;;;;;;;14.33;61.39;100759.72;4984468;28;20026;-35
2023/05/16 03:30:50;;;;;;;15.63;11.68;;;;;;;14.36;61.45;100764.81;4979607;28;20121;-36
2023/05/16 03:33:16;;;;;;;18.95;11.93;;;;;;;14.24;61.76;100755.94;4967552;28;20156;-35
2023/05/16 03:35:42;;;;;;;16.77;10.93;;;;;;;14.14;62.06;100757.59;4950683;28;20165;-35
2023/05/16 03:38:08;;;;;;;14.35;10.52;;;;;;;14.09;62.22;100762.34;4969956;28;20120;-36
2023/05/16 03:40:34;;;;;;;14.43;9.75;;;;;;;14.13;62.27;100763.84;4982901;28;20026;-36
2023/05/16 03:43:00;;;;;;;12.20;10.18;;;;;;;14.20;61.99;100762.41;4985820;28;20126;-36
2023/05/16 03:45:25;;;;;;;13.73;10.77;;;;;;;14.27;61.79;100774.25;4984694;28;20034;-36
2023/05/16 03:47:51;;;;;;;15.30;11.27;;;;;;;14.25;62.02;100773.53;4985945;28;20034;-35
2023/05/16 03:50:17;;;;;;;16.38;11.50;;;;;;;14.30;61.83;100776.66;4963836;28;21382;-35
2023/05/16 03:52:42;;;;;;;14.40;10.27;;;;;;;14.28;61.94;100781.25;4968819;28;20065;-35
2023/05/16 03:55:08;;;;;;;16.25;11.30;;;;;;;14.18;62.28;100790.78;4985216;28;20038;-35
2023/05/16 03:57:37;;;;;;;19.98;12.30;;;;;;;14.17;62.63;100795.25;4983251;28;20116;-35
2023/05/16 04:00:06;;;;;;;22.33;13.23;;;;;;;14.14;62.72;100797.28;4988455;28;20400;-35
2023/05/16 04:02:32;;;;;;;22.60;15.25;;;;;;;14.08;63.45;100792.41;4969454;28;20498;-35
2023/05/16 04:04:57;;;;;;;29.48;16.55;;;;;;;14.11;63.48;100797.50;4988586;28;20073;-35
2023/05/16 04:07:23;;;;;;;32.92;19.17;;;;;;;14.06;64.24;100802.25;4972145;28;20029;-35
2023/05/16 04:09:50;;;;;;;34.70;21.15;;;;;;;14.00;64.62;100806.19;4986355;28;20032;-35
2023/05/16 04:12:15;;;;;;;47.17;22.05;;;;;;;13.94;65.19;100815.41;4983566;28;20029;-35
2023/05/16 04:14:41;;;;;;;35.80;21.77;;;;;;;13.85;65.53;100818.69;4989682;28;20025;-34
2023/05/16 04:17:06;;;;;;;36.70;22.90;;;;;;;13.84;65.63;100814.38;4981974;28;20041;-36
2023/05/16 04:19:32;;;;;;;41.05;23.40;;;;;;;13.79;66.06;100808.56;4988886;28;20109;-35
2023/05/16 04:21:57;;;;;;;38.53;22.83;;;;;;;13.86;65.28;100807.16;4981778;28;20712;-35
2023/05/16 04:24:25;;;;;;;39.13;24.50;;;;;;;13.95;65.35;100806.53;4974350;28;20042;-35
2023/05/16 04:26:51;;;;;;;34.40;21.15;;;;;;;14.03;65.19;100819.19;4961659;28;20042;-35
2023/05/16 04:29:16;;;;;;;42.70;21.85;;;;;;;14.06;65.41;100816.34;4980993;28;20120;-35
2023/05/16 04:31:42;;;;;;;43.00;24.48;;;;;;;14.09;65.68;100823.22;4986133;28;20428;-35
2023/05/16 04:34:08;;;;;;;38.47;22.73;;;;;;;14.01;65.88;100827.22;4981248;28;20099;-36
2023/05/16 04:36:34;;;;;;;40.53;23.33;;;;;;;14.05;65.81;100819.09;4962730;28;20489;-36
2023/05/16 04:39:00;;;;;;;38.47;21.80;;;;;;;14.06;65.74;100823.41;4967772;28;20033;-35
2023/05/16 04:41:25;;;;;;;42.55;22.50;;;;;;;14.09;65.78;100828.50;4980903;28;20067;-35
2023/05/16 04:43:52;;;;;;;34.95;21.88;;;;;;;14.05;66.62;100834.97;4984715;28;20031;-35
2023/05/16 04:46:17;;;;;;;35.65;21.38;;;;;;;14.13;65.86;100827.34;4959104;28;20412;-35
2023/05/16 04:48:43;;;;;;;34.65;21.55;;;;;;;14.19;66.14;100832.16;4955111;28;20029;-35
2023/05/16 04:51:08;;;;;;;38.47;21.92;;;;;;;14.22;66.25;100831.13;4967993;28;20416;-35
2023/05/16 04:53:34;;;;;;;33.50;20.83;;;;;;;14.22;66.16;100837.25;4964457;28;20515;-35
2023/05/16 04:56:00;;;;;;;37.88;21.27;;;;;;;14.26;66.24;100836.09;4953246;28;20033;-35
2023/05/16 04:58:26;;;;;;;31.80;20.90;;;;;;;14.35;65.97;100841.66;4974824;28;20077;-35
2023/05/16 05:00:51;;;;;;;33.92;20.13;;;;;;;14.33;66.36;100842.59;4979305;28;20041;-34
2023/05/16 05:03:20;;;;;;;39.78;23.08;;;;;;;14.37;66.06;100847.69;4996961;28;20052;-35
2023/05/16 05:05:46;;;;;;;35.50;22.00;;;;;;;14.37;66.54;100845.03;4978724;28;20481;-35
2023/05/16 05:08:14;;;;;;;31.83;20.33;;;;;;;14.35;66.96;100854.88;4967190;28;20038;-35
2023/05/16 05:10:39;;;;;;;33.38;18.13;;;;;;;14.31;66.70;100857.75;4984614;28;20507;-35
2023/05/16 05:13:05;;;;;;;32.38;19.40;;;;;;;14.36;66.89;100864.53;4986291;28;20065;-35
2023/05/16 05:15:33;;;;;;;34.03;17.98;;;;;;;14.42;66.61;100869.38;4985296;28;20094;-35
2023/05/16 05:17:58;;;;;;;27.70;18.27;;;;;;;14.47;66.37;100867.22;4985331;28;20037;-35
2023/05/16 05:20:24;;;;;;;25.75;15.90;;;;;;;14.42;66.72;100866.75;4972116;28;20029;-35
2023/05/16 05:22:50;;;;;;;28.17;17.33;;;;;;;14.37;67.24;100864.41;4970633;28;20480;-36
2023/05/16 05:25:15;;;;;;;32.45;17.60;;;;;;;14.36;67.26;100867.16;4956338;28;20041;-35
2023/05/16 05:27:41;;;;;;;26.00;16.45;;;;;;;14.43;67.06;100871.91;4985910;28;20030;-35
2023/05/16 05:30:09;;;;;;;30.20;16.77;;;;;;;14.58;66.37;100885.88;4964832;28;20103;-35
2023/05/16 05:32:35;;;;;;;25.85;14.80;;;;;;;14.62;66.27;100903.19;4984504;28;20125;-36
2023/05/16 05:35:00;;;;;;;24.00;15.27;;;;;;;14.60;66.77;100888.38;4950605;28;20034;-35
2023/05/16 05:37:26;;;;;;;20.83;14.32;;;;;;;14.69;66.11;100892.19;4951866;28;20066;-36
2023/05/16 05:39:54;;;;;;;24.08;16.40;;;;;;;14.72;66.29;100897.28;4969795;28;20026;-36
2023/05/16 05:42:20;;;;;;;24.40;13.40;;;;;;;14.70;66.17;100899.19;4983030;28;20705;-36
2023/05/16 05:44:46;;;;;;;22.58;12.65;;;;;;;14.66;66.85;100902.97;4973315;28;20038;-36
2023/05/16 05:47:11;;;;;;;23.40;13.32;;;;;;;14.67;66.53;100904.66;4973862;28;20424;-36
2023/05/16 05:49:37;;;;;;;22.00;14.35;;;;;;;14.71;66.45;100914.13;4981711;28;20076;-35
2023/05/16 05:52:05;;;;;;;21.80;12.45;;;;;;;14.68;66.85;100922.28;4979390;28;20022;-36
2023/05/16 05:54:31;;;;;;;23.77;13.93;;;;;;;14.71;66.41;100919.44;4986448;28;20022;-36
2023/05/16 05:56:57;;;;;;;22.83;12.25;;;;;;;14.79;66.12;100909.09;4971609;28;20034;-36
2023/05/16 05:59:23;;;;;;;22.50;14.13;;;;;;;14.92;65.82;100914.34;4989528;28;20040;-36
2023/05/16 06:01:51;;;;;;;22.35;12.73;;;;;;;15.01;65.59;100932.22;4964484;28;20038;-36
2023/05/16 06:04:18;;;;;;;22.15;12.80;;;;;;;15.09;65.30;100913.97;4964999;28;20041;-36
2023/05/16 06:06:46;;;;;;;20.00;13.60;;;;;;;15.17;65.13;100929.28;4975193;28;20161;-36
2023/05/16 06:09:13;;;;;;;21.58;12.40;;;;;;;15.17;64.90;100924.00;4987634;28;20506;-36
2023/05/16 06:11:40;;;;;;;23.08;13.00;;;;;;;15.21;64.88;100930.75;4989496;28;20038;-35
2023/05/16 06:14:08;;;;;;;23.48;13.13;;;;;;;15.15;65.48;100931.22;4977678;28;20045;-36
2023/05/16 06:16:34;;;;;;;18.10;11.48;;;;;;;15.11;65.53;100928.91;4987130;28;20041;-35
2023/05/16 06:18:59;;;;;;;18.38;12.80;;;;;;;15.24;65.02;100957.03;4978413;28;20034;-36
2023/05/16 06:21:27;;;;;;;22.05;13.23;;;;;;;15.41;64.63;100946.97;4982809;28;20505;-36
2023/05/16 06:23:52;;;;;;;22.25;13.68;;;;;;;15.48;64.82;100948.22;4989565;28;20501;-36
2023/05/16 06:26:21;;;;;;;20.50;11.70;;;;;;;15.42;65.12;100963.75;4972282;28;20049;-36
2023/05/16 06:28:49;;;;;;;21.88;12.13;;;;;;;15.41;65.28;100954.91;4971277;28;20342;-36
2023/05/16 06:31:15;;;;;;;28.67;14.02;;;;;;;15.51;65.05;100963.03;4985232;28;20030;-37
2023/05/16 06:33:40;;;;;;;22.75;14.48;;;;;;;15.34;65.79;100977.56;5004345;28;20026;-36
2023/05/16 06:36:09;;;;;;;24.40;13.77;;;;;;;15.30;65.83;100976.09;4972576;28;20233;-36
2023/05/16 06:38:35;;;;;;;21.60;12.98;;;;;;;15.20;66.10;100974.09;4984735;28;20389;-36
2023/05/16 06:41:01;;;;;;;25.80;15.00;;;;;;;15.25;66.11;100973.78;4968477;28;20484;-36
2023/05/16 06:43:26;;;;;;;21.92;14.85;;;;;;;15.19;66.25;100977.75;4970607;28;20115;-36
2023/05/16 06:45:52;;;;;;;22.83;15.00;;;;;;;15.12;66.83;100981.78;4951371;28;20113;-36
2023/05/16 06:48:18;;;;;;;26.30;15.13;;;;;;;15.08;66.78;100989.13;4967821;28;20114;-36
2023/05/16 06:50:53;;;;;;;24.88;13.65;;;;;;;15.07;67.68;100989.22;4984847;28;20064;-36
2023/05/16 06:53:18;;;;;;;22.05;12.63;;;;;;;14.87;67.77;101001.25;4986047;28;20715;-35
2023/05/16 06:55:47;;;;;;;20.20;11.90;;;;;;;14.66;68.30;101020.38;4986835;28;20034;-36
2023/05/16 06:58:13;;;;;;;22.73;10.85;;;;;;;14.44;68.63;101008.63;4987691;28;20018;-35
2023/05/16 07:00:38;;;;;;;22.73;11.32;;;;;;;14.41;68.49;101006.19;4985197;28;20030;-36
2023/05/16 07:03:04;;;;;;;18.25;10.35;;;;;;;14.32;68.83;101012.97;4985890;28;20053;-35
2023/05/16 07:05:30;;;;;;;23.63;10.40;;;;;;;14.30;68.58;101020.16;4970267;28;20023;-35
2023/05/16 07:07:56;;;;;;;16.08;9.95;;;;;;;14.15;68.85;101032.66;4988876;28;20546;-36
2023/05/16 07:10:24;;;;;;;14.27;7.78;;;;;;;14.07;68.52;101029.69;4983646;28;20160;-36
2023/05/16 07:12:50;;;;;;;20.17;10.30;;;;;;;14.08;68.20;101034.03;4972256;28;20034;-35
2023/05/16 07:15:15;;;;;;;20.00;10.45;;;;;;;14.14;67.99;101040.72;4989474;28;20029;-36
2023/05/16 07:17:41;;;;;;;22.02;11.27;;;;;;;14.00;68.56;101044.28;4968987;28;20030;-36
2023/05/16 07:20:10;;;;;;;20.90;11.13;;;;;;;13.97;68.53;101048.00;4991084;28;20056;-35
2023/05/16 07:22:35;;;;;;;19.63;11.75;;;;;;;14.00;68.28;101046.94;5002028;28;20862;-36
2023/05/16 07:25:04;;;;;;;21.33;11.02;;;;;;;14.11;67.65;101051.50;4988681;28;20033;-35
2023/05/16 07:27:30;;;;;;;20.58;10.57;;;;;;;14.11;67.36;101056.81;4983572;28;20037;-35
2023/05/16 07:29:56;;;;;;;21.75;12.40;;;;;;;14.16;67.13;101052.03;4975937;28;20034;-35
2023/05/16 07:32:22;;;;;;;21.65;11.48;;;;;;;14.28;66.58;101048.56;4987451;28;20021;-35
2023/05/16 07:34:48;;;;;;;23.05;12.13;;;;;;;14.21;67.04;101049.09;4990036;28;20029;-36
2023/05/16 07:37:15;;;;;;;23.90;11.82;;;;;;;14.21;67.02;101049.91;4968794;28;20038;-36
2023/05/16 07:39:41;;;;;;;25.15;11.60;;;;;;;14.17;67.14;101051.94;4988734;28;20034;-35
2023/05/16 07:42:07;;;;;;;25.00;11.77;;;;;;;14.11;67.47;101057.63;4983354;28;20033;-36
2023/05/16 07:44:33;;;;;;;25.00;12.75;;;;;;;14.11;67.16;101064.75;4985016;28;20081;-36
2023/05/16 07:46:58;;;;;;;24.98;12.00;;;;;;;14.05;67.25;101071.28;4974826;28;20037;-35
2023/05/16 07:49:24;;;;;;;21.65;10.27;;;;;;;14.07;67.73;101065.88;4985798;28;20034;-36
2023/05/16 07:51:50;;;;;;;17.65;9.82;;;;;;;13.87;67.88;101081.28;4969041;28;20048;-35
2023/05/16 07:54:15;;;;;;;16.77;9.40;;;;;;;13.91;67.50;101082.78;4969143;28;20102;-36
2023/05/16 07:56:41;;;;;;;14.48;8.52;;;;;;;14.00;67.26;101086.63;4976889;28;22970;-35
2023/05/16 07:59:07;;;;;;;16.45;8.63;;;;;;;14.15;66.69;101093.53;4954919;28;20275;-36
2023/05/16 08:01:32;;;;;;;17.00;8.63;;;;;;;14.17;66.40;101126.03;4973002;28;20030;-36
2023/05/16 08:03:59;;;;;;;12.95;8.07;;;;;;;13.95;66.63;101109.88;4985260;28;20040;-36
2023/05/16 08:06:25;;;;;;;14.10;8.25;;;;;;;13.88;66.94;101104.16;4960334;28;20038;-36
2023/05/16 08:08:51;;;;;;;13.38;7.50;;;;;;;14.07;66.43;101118.81;4986796;28;20510;-36
2023/05/16 08:11:21;;;;;;;16.17;8.10;;;;;;;14.10;66.38;101123.91;4989715;28;20036;-36
2023/05/16 08:13:49;;;;;;;16.40;8.23;;;;;;;14.09;65.94;101117.75;4986486;28;20114;-36
2023/05/16 08:16:14;;;;;;;16.15;7.82;;;;;;;14.12;65.90;101127.28;5002460;28;20028;-36
2023/05/16 08:18:42;;;;;;;16.73;8.32;;;;;;;14.10;66.01;101130.03;4969470;28;20042;-36
2023/05/16 08:21:08;;;;;;;17.50;9.05;;;;;;;14.13;65.51;101123.72;4970106;28;20030;-36
2023/05/16 08:23:35;;;;;;;17.20;10.20;;;;;;;13.99;66.21;101137.84;4972426;28;23022;-36
2023/05/16 08:26:03;;;;;;;21.60;12.00;;;;;;;13.99;66.08;101125.44;4971871;28;20057;-35
2023/05/16 08:28:29;;;;;;;21.55;11.27;;;;;;;14.00;66.10;101144.81;4973646;28;20535;-37
2023/05/16 08:30:55;;;;;;;18.83;10.73;;;;;;;13.93;66.02;101132.94;4991605;28;20029;-36
2023/05/16 08:33:21;;;;;;;21.13;10.55;;;;;;;13.97;65.92;101139.72;4955197;28;20057;-36
2023/05/16 08:35:48;;;;;;;16.67;9.63;;;;;;;13.90;66.22;101139.28;4963618;28;20030;-36
2023/05/16 08:38:14;;;;;;;23.80;11.90;;;;;;;13.85;66.20;101128.16;4984762;28;20663;-35
2023/05/16 08:40:39;;;;;;;18.02;10.63;;;;;;;14.00;65.70;101135.06;4965146;28;20089;-36
2023/05/16 08:43:06;;;;;;;20.70;10.77;;;;;;;14.05;65.42;101136.56;4985561;28;20030;-36
2023/05/16 08:45:32;;;;;;;23.02;12.15;;;;;;;13.86;65.76;101127.19;4979865;28;20037;-36
2023/05/16 08:48:00;;;;;;;17.80;9.90;;;;;;;13.81;66.21;101139.91;4976560;28;20034;-36
2023/05/16 08:50:30;;;;;;;17.25;10.00;;;;;;;13.76;66.19;101147.28;4990396;28;20477;-35
2023/05/16 08:52:56;;;;;;;17.83;9.73;;;;;;;13.81;66.09;101146.03;4966620;28;20041;-36
2023/05/16 08:55:23;;;;;;;12.02;6.03;;;;;;;13.84;66.02;101139.72;4971297;28;20027;-35
2023/05/16 08:57:50;;;;;;;16.92;8.13;;;;;;;13.92;66.02;101147.97;4970967;28;20022;-36
2023/05/16 09:00:18;;;;;;;15.90;8.75;;;;;;;13.96;65.42;101153.91;4953620;28;20053;-36
2023/05/16 09:02:44;;;;;;;13.27;9.07;;;;;;;13.74;66.11;101155.31;4988301;28;20487;-36
2023/05/16 09:05:14;;;;;;;18.92;9.18;;;;;;;13.82;65.69;101153.00;4981356;28;20025;-36
2023/05/16 09:07:41;;;;;;;15.68;8.35;;;;;;;13.80;65.67;101156.72;4969696;28;20049;-35
2023/05/16 09:10:10;;;;;;;16.25;7.88;;;;;;;13.72;65.71;101157.22;4981331;28;20567;-35
2023/05/16 09:12:39;;;;;;;18.45;10.38;;;;;;;13.83;65.30;101153.88;4984584;28;20092;-36
2023/05/16 09:15:06;;;;;;;23.77;11.80;;;;;;;13.98;64.93;101160.81;4981684;28;20169;-36
2023/05/16 09:17:42;;;;;;;21.23;10.50;;;;;;;14.02;65.02;101175.50;4976684;28;20428;-36
2023/05/16 09:20:16;;;;;;;18.52;7.78;;;;;;;13.93;64.99;101164.69;4998364;28;20493;-36
2023/05/16 09:22:55;;;;;;;21.45;8.70;;;;;;;13.89;64.91;101164.03;4985204;28;20052;-36
2023/05/16 09:25:23;;;;;;;14.32;6.43;;;;;;;14.00;64.53;101166.81;4981157;28;20128;-37
2023/05/16 09:27:56;;;;;;;11.82;6.50;;;;;;;13.89;64.67;101163.22;4965692;28;20388;-37
2023/05/16 09:30:26;;;;;;;13.55;6.63;;;;;;;13.75;64.63;101167.59;4967639;28;20072;-34
2023/05/16 09:32:52;;;;;;;15.73;6.95;;;;;;;13.71;64.79;101166.09;4987444;28;20620;-36
2023/05/16 09:35:23;;;;;;;13.13;6.15;;;;;;;13.69;64.73;101157.41;4982813;28;20083;-35
2023/05/16 09:37:52;;;;;;;10.55;6.03;;;;;;;13.81;64.32;101171.63;4987086;28;20113;-35
2023/05/16 09:40:22;;;;;;;16.58;5.70;;;;;;;13.87;63.89;101160.63;4987080;28;20037;-36
2023/05/16 09:43:04;;;;;;;9.55;6.18;;;;;;;13.93;63.69;101172.63;4990544;28;20034;-36
2023/05/16 09:45:33;;;;;;;17.15;5.53;;;;;;;14.01;63.23;101162.41;4989431;28;20108;-36
2023/05/16 09:48:07;;;;;;;11.43;5.88;;;;;;;13.96;62.85;101169.78;4986019;28;20211;-34
2023/05/16 09:50:34;;;;;;;9.00;5.25;;;;;;;13.92;63.12;101173.56;4986967;28;20049;-34
2023/05/16 09:53:01;;;;;;;11.63;4.93;;;;;;;13.75;63.48;101177.31;4985521;28;20080;-34
2023/05/16 09:55:26;;;;;;;10.05;5.50;;;;;;;13.80;63.31;101186.66;4972993;28;20026;-34
2023/05/16 09:57:55;;;;;;;9.90;5.03;;;;;;;13.78;63.43;101182.41;4974111;28;20068;-35
2023/05/16 10:00:21;;;;;;;19.10;5.93;;;;;;;13.65;63.63;101187.63;4968630;28;20045;-34
2023/05/16 10:02:48;;;;;;;11.95;5.90;;;;;;;13.70;63.33;101196.97;4982519;28;20153;-35
2023/05/16 10:05:15;;;;;;;13.45;5.70;;;;;;;13.71;63.35;101201.31;4972376;28;20160;-35
2023/05/16 10:07:44;;;;;;;11.30;5.93;;;;;;;13.82;62.68;101205.06;4972699;28;20021;-35
2023/05/16 10:10:11;;;;;;;13.02;5.13;;;;;;;13.82;63.03;101219.13;4971069;28;20034;-35
2023/05/16 10:12:37;;;;;;;9.98;6.15;;;;;;;13.77;62.87;101223.03;4977298;28;20038;-35
2023/05/16 10:15:04;;;;;;;14.10;5.75;;;;;;;13.86;62.52;101225.94;4986743;28;20018;-35
2023/05/16 10:17:34;;;;;;;11.70;5.90;;;;;;;13.99;62.30;101238.38;4991945;28;20428;-36
2023/05/16 10:20:06;;;;;;;13.15;5.65;;;;;;;13.96;62.17;101238.56;4989999;28;20037;-35
2023/05/16 10:22:38;;;;;;;15.02;5.68;;;;;;;13.85;62.17;101232.16;4991379;28;20592;-35
2023/05/16 10:25:27;;;;;;;9.23;4.43;;;;;;;13.70;62.09;101239.28;4973588;28;20042;-34
2023/05/16 10:27:54;;;;;;;10.07;4.30;;;;;;;13.80;62.35;101255.41;4979481;28;20296;-35
2023/05/16 10:30:20;;;;;;;6.82;4.45;;;;;;;13.80;62.00;101249.28;4977630;28;20026;-36
2023/05/16 10:32:46;;;;;;;11.90;4.90;;;;;;;13.66;62.25;101256.28;4981365;28;20068;-36
2023/05/16 10:35:12;;;;;;;7.15;4.35;;;;;;;13.52;62.49;101256.31;4975397;28;20064;-37
2023/05/16 10:37:39;;;;;;;8.75;4.63;;;;;;;13.57;62.47;101254.22;4985504;28;20038;-37
2023/05/16 10:40:06;;;;;;;11.55;4.18;;;;;;;13.61;62.51;101250.44;4973860;28;20540;-37
2023/05/16 10:42:32;;;;;;;10.35;4.75;;;;;;;13.76;62.21;101255.72;4968348;28;20113;-37
2023/05/16 10:45:17;;;;;;;11.13;4.43;;;;;;;13.87;61.92;101262.03;4990858;28;20022;-34
2023/05/16 10:47:54;;;;;;;7.78;4.05;;;;;;;13.92;61.75;101258.22;4997754;28;20026;-34
2023/05/16 10:50:39;;;;;;;7.57;3.47;;;;;;;13.82;61.63;101252.69;4985814;28;20084;-34
2023/05/16 10:53:14;;;;;;;7.03;4.18;;;;;;;13.87;61.53;101250.59;4983647;28;20788;-34
2023/05/16 10:56:03;;;;;;;8.75;3.95;;;;;;;13.99;61.56;101254.25;4981210;28;20069;-35
2023/05/16 10:58:33;;;;;;;9.48;5.13;;;;;;;13.99;61.40;101244.50;4984630;28;20044;-35
2023/05/16 11:01:20;;;;;;;8.38;4.60;;;;;;;14.03;61.21;101256.59;4985497;28;20095;-35
2023/05/16 11:04:01;;;;;;;6.60;4.05;;;;;;;13.98;61.33;101264.00;4982410;28;20153;-35
2023/05/16 11:06:40;;;;;;;12.25;4.05;;;;;;;14.01;61.27;101262.94;4983273;28;20030;-34
2023/05/16 11:09:14;;;;;;;6.63;4.05;;;;;;;13.93;61.51;101255.50;4987490;28;20036;-36
2023/05/16 11:11:57;;;;;;;6.32;3.63;;;;;;;14.01;61.19;101252.34;4985880;28;20041;-35
2023/05/16 11:14:32;;;;;;;6.22;3.00;;;;;;;13.88;61.59;101252.28;4985792;28;20026;-35
2023/05/16 11:17:13;;;;;;;8.30;4.28;;;;;;;13.98;61.53;101264.00;4984503;28;20132;-36
2023/05/16 11:19:39;;;;;;;9.57;3.33;;;;;;;13.98;61.30;101248.13;4972352;28;20045;-35